Armstrong, Alabama
Current Conditions -  °F | °C
As of 1:15 AM on Wednesday 22 Oct 2014 (Local Time) from KAUO Reporting Station
Clear Clear  
Wind Chill: 55°   Ceiling: Unl
Heat Index: 55°   Visibility: 10mi
Dew Point: 45°   Wind: 7mph
Humidity: 67%   Direction: 10°N
Pressure: 30.06"   Gusts: NA
Location:  32.2227°N, 85.6394°W
Report Text: KAUO 220615Z AUTO 01006KT 10SM CLR 13/07 A3006 RMK AO1
Loading
Personal Weather Stations






























Interactive Weather Map
Tropical Storm Tracking
New forecast layout! Learn more

10-Day Weather Forecast

Advertisements
Track Severe Weather on mobile